sensor_id;sensor_type;location;lat;lon;timestamp;pressure;altitude;pressure_sealevel;temperature;humidity
45621;BME280;31345;51.522;10.702;2023-02-14T00:01:20;101107.00;;;4.42;100.00
45621;BME280;31345;51.522;10.702;2023-02-14T00:03:55;101112.13;;;4.55;100.00
45621;BME280;31345;51.522;10.702;2023-02-14T00:06:31;101110.47;;;4.44;100.00
45621;BME280;31345;51.522;10.702;2023-02-14T00:09:01;101108.75;;;4.43;100.00
45621;BME280;31345;51.522;10.702;2023-02-14T00:11:33;101108.78;;;4.37;100.00
45621;BME280;31345;51.522;10.702;2023-02-14T00:14:03;101107.94;;;4.37;100.00
45621;BME280;31345;51.522;10.702;2023-02-14T00:16:48;101117.47;;;4.30;100.00
45621;BME280;31345;51.522;10.702;2023-02-14T00:19:21;101115.75;;;4.27;100.00
45621;BME280;31345;51.522;10.702;2023-02-14T00:21:54;101116.63;;;4.31;100.00
45621;BME280;31345;51.522;10.702;2023-02-14T00:24:27;101120.13;;;4.22;100.00
45621;BME280;31345;51.522;10.702;2023-02-14T00:27:00;101114.97;;;4.14;100.00
45621;BME280;31345;51.522;10.702;2023-02-14T00:29:30;101109.75;;;4.24;100.00
45621;BME280;31345;51.522;10.702;2023-02-14T00:32:03;101117.59;;;4.13;100.00
45621;BME280;31345;51.522;10.702;2023-02-14T00:34:31;101105.50;;;4.15;100.00
45621;BME280;31345;51.522;10.702;2023-02-14T00:37:01;101103.75;;;4.18;100.00
45621;BME280;31345;51.522;10.702;2023-02-14T00:39:34;101108.91;;;4.21;100.00
45621;BME280;31345;51.522;10.702;2023-02-14T00:42:10;101102.88;;;4.23;100.00
45621;BME280;31345;51.522;10.702;2023-02-14T00:44:40;101111.47;;;4.21;100.00
45621;BME280;31345;51.522;10.702;2023-02-14T00:47:07;101114.97;;;4.17;100.00
45621;BME280;31345;51.522;10.702;2023-02-14T00:49:40;101115.78;;;4.24;100.00
45621;BME280;31345;51.522;10.702;2023-02-14T00:52:08;101112.34;;;4.20;100.00
45621;BME280;31345;51.522;10.702;2023-02-14T00:54:40;101127.06;;;4.17;100.00
45621;BME280;31345;51.522;10.702;2023-02-14T00:57:08;101120.22;;;4.06;100.00
45621;BME280;31345;51.522;10.702;2023-02-14T00:59:42;101111.56;;;4.06;100.00
45621;BME280;31345;51.522;10.702;2023-02-14T01:02:10;101116.75;;;4.07;100.00
45621;BME280;31345;51.522;10.702;2023-02-14T01:04:37;101120.16;;;4.16;100.00
45621;BME280;31345;51.522;10.702;2023-02-14T01:07:11;101122.78;;;4.11;100.00
45621;BME280;31345;51.522;10.702;2023-02-14T01:09:38;101117.63;;;4.06;100.00
45621;BME280;31345;51.522;10.702;2023-02-14T01:12:11;101113.28;;;4.12;100.00
45621;BME280;31345;51.522;10.702;2023-02-14T01:14:42;101114.13;;;4.15;100.00
45621;BME280;31345;51.522;10.702;2023-02-14T01:17:15;101114.13;;;4.12;100.00
45621;BME280;31345;51.522;10.702;2023-02-14T01:19:50;101117.63;;;4.02;100.00
45621;BME280;31345;51.522;10.702;2023-02-14T01:22:23;101118.59;;;3.88;100.00
45621;BME280;31345;51.522;10.702;2023-02-14T01:24:56;101116.88;;;3.87;100.00
45621;BME280;31345;51.522;10.702;2023-02-14T01:27:29;101113.41;;;3.94;100.00
45621;BME280;31345;51.522;10.702;2023-02-14T01:29:58;101114.22;;;3.98;100.00
45621;BME280;31345;51.522;10.702;2023-02-14T01:32:30;101115.91;;;4.07;100.00
45621;BME280;31345;51.522;10.702;2023-02-14T01:34:59;101114.28;;;3.89;100.00
45621;BME280;31345;51.522;10.702;2023-02-14T01:37:31;101119.41;;;3.97;100.00
45621;BME280;31345;51.522;10.702;2023-02-14T01:40:05;101115.06;;;4.02;100.00
45621;BME280;31345;51.522;10.702;2023-02-14T01:42:35;101113.34;;;4.02;100.00
45621;BME280;31345;51.522;10.702;2023-02-14T01:45:16;101114.22;;;4.00;100.00
45621;BME280;31345;51.522;10.702;2023-02-14T01:47:55;101113.41;;;3.93;100.00
45621;BME280;31345;51.522;10.702;2023-02-14T01:50:26;101117.63;;;4.02;100.00
45621;BME280;31345;51.522;10.702;2023-02-14T01:53:04;101119.41;;;3.98;100.00
45621;BME280;31345;51.522;10.702;2023-02-14T01:55:38;101107.34;;;3.92;100.00
45621;BME280;31345;51.522;10.702;2023-02-14T01:58:09;101118.56;;;3.94;100.00
45621;BME280;31345;51.522;10.702;2023-02-14T02:00:40;101114.22;;;3.95;100.00
45621;BME280;31345;51.522;10.702;2023-02-14T02:03:33;101106.53;;;3.84;100.00
45621;BME280;31345;51.522;10.702;2023-02-14T02:06:09;101112.59;;;3.78;100.00
45621;BME280;31345;51.522;10.702;2023-02-14T02:08:49;101112.59;;;3.78;100.00
45621;BME280;31345;51.522;10.702;2023-02-14T02:11:24;101116.88;;;3.82;100.00
45621;BME280;31345;51.522;10.702;2023-02-14T02:13:56;101124.66;;;3.79;100.00
45621;BME280;31345;51.522;10.702;2023-02-14T02:16:49;101124.72;;;3.73;100.00
45621;BME280;31345;51.522;10.702;2023-02-14T02:26:17;101118.66;;;3.69;100.00
45621;BME280;31345;51.522;10.702;2023-02-14T02:29:13;101107.50;;;3.67;100.00
45621;BME280;31345;51.522;10.702;2023-02-14T02:32:23;101106.59;;;3.75;100.00
45621;BME280;31345;51.522;10.702;2023-02-14T02:35:19;101115.31;;;3.53;100.00
45621;BME280;31345;51.522;10.702;2023-02-14T02:38:05;101104.97;;;3.52;100.00
45621;BME280;31345;51.522;10.702;2023-02-14T02:40:46;101109.25;;;3.54;100.00
45621;BME280;31345;51.522;10.702;2023-02-14T02:43:29;101106.72;;;3.47;100.00
45621;BME280;31345;51.522;10.702;2023-02-14T02:46:04;101104.91;;;3.58;100.00
45621;BME280;31345;51.522;10.702;2023-02-14T02:48:57;101102.31;;;3.63;100.00
45621;BME280;31345;51.522;10.702;2023-02-14T02:51:32;101104.03;;;3.64;100.00
45621;BME280;31345;51.522;10.702;2023-02-14T02:54:30;101104.03;;;3.65;100.00
45621;BME280;31345;51.522;10.702;2023-02-14T02:57:09;101100.63;;;3.60;100.00
45621;BME280;31345;51.522;10.702;2023-02-14T02:59:40;101098.91;;;3.59;100.00
45621;BME280;31345;51.522;10.702;2023-02-14T03:02:12;101102.44;;;3.39;100.00
45621;BME280;31345;51.522;10.702;2023-02-14T03:04:50;101098.09;;;3.45;100.00
45621;BME280;31345;51.522;10.702;2023-02-14T03:07:29;101094.75;;;3.14;100.00
45621;BME280;31345;51.522;10.702;2023-02-14T03:10:11;101101.63;;;3.17;100.00
45621;BME280;31345;51.522;10.702;2023-02-14T03:13:01;101093.88;;;3.12;100.00
45621;BME280;31345;51.522;10.702;2023-02-14T03:15:40;101090.47;;;3.04;100.00
45621;BME280;31345;51.522;10.702;2023-02-14T03:18:31;101095.66;;;2.82;100.00
45621;BME280;31345;51.522;10.702;2023-02-14T03:21:19;101091.34;;;2.89;100.00
45621;BME280;31345;51.522;10.702;2023-02-14T03:23:53;101090.44;;;3.16;100.00
45621;BME280;31345;51.522;10.702;2023-02-14T03:26:28;101087.84;;;3.20;100.00
45621;BME280;31345;51.522;10.702;2023-02-14T03:29:07;101087.84;;;3.23;100.00
45621;BME280;31345;51.522;10.702;2023-02-14T03:31:44;101086.09;;;3.20;100.00
45621;BME280;31345;51.522;10.702;2023-02-14T03:34:15;101078.34;;;3.22;100.00
45621;BME280;31345;51.522;10.702;2023-02-14T03:36:55;101088.69;;;3.20;100.00
45621;BME280;31345;51.522;10.702;2023-02-14T03:39:36;101087.88;;;3.07;100.00
45621;BME280;31345;51.522;10.702;2023-02-14T03:42:15;101089.56;;;3.21;100.00
45621;BME280;31345;51.522;10.702;2023-02-14T03:44:46;101075.75;;;3.23;100.00
45621;BME280;31345;51.522;10.702;2023-02-14T03:47:23;101081.84;;;3.08;100.00
45621;BME280;31345;51.522;10.702;2023-02-14T03:49:54;101080.97;;;3.12;100.00
45621;BME280;31345;51.522;10.702;2023-02-14T03:52:28;101083.53;;;3.19;100.00
45621;BME280;31345;51.522;10.702;2023-02-14T03:55:00;101071.44;;;3.24;100.00
45621;BME280;31345;51.522;10.702;2023-02-14T03:57:37;101079.19;;;3.27;100.00
45621;BME280;31345;51.522;10.702;2023-02-14T04:00:15;101083.50;;;3.23;100.00
45621;BME280;31345;51.522;10.702;2023-02-14T04:02:53;101080.09;;;3.18;100.00
45621;BME280;31345;51.522;10.702;2023-02-14T04:05:27;101080.91;;;3.22;100.00
45621;BME280;31345;51.522;10.702;2023-02-14T04:07:56;101079.22;;;3.16;100.00
45621;BME280;31345;51.522;10.702;2023-02-14T04:10:31;101080.09;;;3.13;100.00
45621;BME280;31345;51.522;10.702;2023-02-14T04:12:58;101082.69;;;3.09;100.00
45621;BME280;31345;51.522;10.702;2023-02-14T04:15:26;101075.78;;;3.12;100.00
45621;BME280;31345;51.522;10.702;2023-02-14T04:17:53;101079.22;;;3.19;100.00
45621;BME280;31345;51.522;10.702;2023-02-14T04:20:43;101077.53;;;3.10;100.00
45621;BME280;31345;51.522;10.702;2023-02-14T04:23:16;101077.53;;;3.04;100.00
45621;BME280;31345;51.522;10.702;2023-02-14T04:25:50;101068.88;;;3.16;100.00
45621;BME280;31345;51.522;10.702;2023-02-14T04:28:17;101067.16;;;3.21;100.00
45621;BME280;31345;51.522;10.702;2023-02-14T04:30:45;101071.44;;;3.27;100.00
45621;BME280;31345;51.522;10.702;2023-02-14T04:33:17;101063.69;;;3.25;100.00
45621;BME280;31345;51.522;10.702;2023-02-14T04:35:45;101068.06;;;2.95;100.00
45621;BME280;31345;51.522;10.702;2023-02-14T04:38:14;101068.94;;;2.97;100.00
45621;BME280;31345;51.522;10.702;2023-02-14T04:40:41;101060.28;;;3.19;100.00
45621;BME280;31345;51.522;10.702;2023-02-14T04:43:15;101060.28;;;3.06;100.00
45621;BME280;31345;51.522;10.702;2023-02-14T04:45:43;101053.41;;;3.02;100.00
45621;BME280;31345;51.522;10.702;2023-02-14T04:48:15;101062.03;;;3.04;100.00
45621;BME280;31345;51.522;10.702;2023-02-14T04:50:43;101054.31;;;2.93;100.00
45621;BME280;31345;51.522;10.702;2023-02-14T04:53:16;101051.72;;;2.90;100.00
45621;BME280;31345;51.522;10.702;2023-02-14T04:55:44;101052.59;;;2.84;100.00
45621;BME280;31345;51.522;10.702;2023-02-14T04:58:12;101054.31;;;2.93;100.00
45621;BME280;31345;51.522;10.702;2023-02-14T05:00:41;101056.88;;;2.99;100.00
45621;BME280;31345;51.522;10.702;2023-02-14T05:03:08;101049.94;;;3.08;100.00
45621;BME280;31345;51.522;10.702;2023-02-14T05:05:36;101042.22;;;3.04;100.00
45621;BME280;31345;51.522;10.702;2023-02-14T05:08:08;101043.94;;;2.96;100.00
45621;BME280;31345;51.522;10.702;2023-02-14T05:10:36;101041.41;;;2.90;100.00
45621;BME280;31345;51.522;10.702;2023-02-14T05:13:08;101038.78;;;3.01;100.00
45621;BME280;31345;51.522;10.702;2023-02-14T05:15:36;101048.22;;;3.13;100.00
45621;BME280;31345;51.522;10.702;2023-02-14T05:18:10;101044.81;;;3.04;100.00
45621;BME280;31345;51.522;10.702;2023-02-14T05:20:43;101048.28;;;2.99;100.00
45621;BME280;31345;51.522;10.702;2023-02-14T05:23:15;101050.84;;;2.97;100.00
45621;BME280;31345;51.522;10.702;2023-02-14T05:25:49;101046.53;;;3.07;100.00
45621;BME280;31345;51.522;10.702;2023-02-14T05:28:17;101044.81;;;2.98;100.00
45621;BME280;31345;51.522;10.702;2023-02-14T05:30:50;101041.38;;;2.96;100.00
45621;BME280;31345;51.522;10.702;2023-02-14T05:33:19;101046.56;;;2.91;100.00
45621;BME280;31345;51.522;10.702;2023-02-14T05:35:47;101043.97;;;2.93;100.00
45621;BME280;31345;51.522;10.702;2023-02-14T05:38:15;101036.19;;;2.98;100.00
45621;BME280;31345;51.522;10.702;2023-02-14T05:40:42;101042.28;;;2.76;100.00
45621;BME280;31345;51.522;10.702;2023-02-14T05:43:15;101035.41;;;2.71;100.00
45621;BME280;31345;51.522;10.702;2023-02-14T05:45:48;101041.41;;;2.71;100.00
45621;BME280;31345;51.522;10.702;2023-02-14T05:48:15;101042.31;;;2.56;100.00
45621;BME280;31345;51.522;10.702;2023-02-14T05:50:49;101044.00;;;2.70;100.00
45621;BME280;31345;51.522;10.702;2023-02-14T05:53:22;101036.25;;;2.79;100.00
45621;BME280;31345;51.522;10.702;2023-02-14T05:55:49;101039.69;;;2.81;100.00
45621;BME280;31345;51.522;10.702;2023-02-14T05:58:22;101035.38;;;2.85;100.00
45621;BME280;31345;51.522;10.702;2023-02-14T06:00:55;101034.50;;;2.78;100.00
45621;BME280;31345;51.522;10.702;2023-02-14T06:03:23;101037.97;;;2.85;100.00
45621;BME280;31345;51.522;10.702;2023-02-14T06:05:52;101035.38;;;2.83;100.00
45621;BME280;31345;51.522;10.702;2023-02-14T06:08:19;101038.81;;;2.84;100.00
45621;BME280;31345;51.522;10.702;2023-02-14T06:10:47;101040.53;;;2.89;100.00
45621;BME280;31345;51.522;10.702;2023-02-14T06:13:19;101043.13;;;2.85;100.00
45621;BME280;31345;51.522;10.702;2023-02-14T06:15:47;101044.84;;;2.86;100.00
45621;BME280;31345;51.522;10.702;2023-02-14T06:18:15;101047.44;;;2.86;100.00
45621;BME280;31345;51.522;10.702;2023-02-14T06:20:47;101047.47;;;2.75;100.00
45621;BME280;31345;51.522;10.702;2023-02-14T06:23:16;101048.31;;;2.78;100.00
45621;BME280;31345;51.522;10.702;2023-02-14T06:25:49;101050.03;;;2.70;100.00
45621;BME280;31345;51.522;10.702;2023-02-14T06:28:16;101052.63;;;2.76;100.00
45621;BME280;31345;51.522;10.702;2023-02-14T06:30:45;101060.38;;;2.72;100.00
45621;BME280;31345;51.522;10.702;2023-02-14T06:33:13;101051.75;;;2.77;100.00
45621;BME280;31345;51.522;10.702;2023-02-14T06:35:45;101050.06;;;2.59;100.00
45621;BME280;31345;51.522;10.702;2023-02-14T06:38:19;101052.63;;;2.36;100.00
45621;BME280;31345;51.522;10.702;2023-02-14T06:40:52;101058.66;;;2.60;100.00
45621;BME280;31345;51.522;10.702;2023-02-14T06:43:19;101056.94;;;2.62;100.00
45621;BME280;31345;51.522;10.702;2023-02-14T06:45:52;101064.69;;;2.63;100.00
45621;BME280;31345;51.522;10.702;2023-02-14T06:48:19;101069.84;;;2.73;100.00
45621;BME280;31345;51.522;10.702;2023-02-14T06:50:52;101065.53;;;2.76;100.00
45621;BME280;31345;51.522;10.702;2023-02-14T06:53:26;101066.38;;;2.80;100.00
45621;BME280;31345;51.522;10.702;2023-02-14T06:55:59;101062.97;;;2.73;100.00
45621;BME280;31345;51.522;10.702;2023-02-14T06:58:31;101062.94;;;2.67;100.00
45621;BME280;31345;51.522;10.702;2023-02-14T07:00:59;101057.78;;;2.73;100.00
45621;BME280;31345;51.522;10.702;2023-02-14T07:03:31;101060.38;;;2.76;100.00
45621;BME280;31345;51.522;10.702;2023-02-14T07:06:04;101064.69;;;2.63;100.00
45621;BME280;31345;51.522;10.702;2023-02-14T07:08:38;101056.94;;;2.62;100.00
45621;BME280;31345;51.522;10.702;2023-02-14T07:11:12;101054.38;;;2.62;100.00
45621;BME280;31345;51.522;10.702;2023-02-14T07:13:40;101053.50;;;2.53;100.00
45621;BME280;31345;51.522;10.702;2023-02-14T07:16:09;101049.19;;;2.59;100.00
45621;BME280;31345;51.522;10.702;2023-02-14T07:18:36;101056.09;;;2.53;100.00
45621;BME280;31345;51.522;10.702;2023-02-14T07:21:09;101057.81;;;2.48;100.00
45621;BME280;31345;51.522;10.702;2023-02-14T07:23:38;101062.09;;;2.42;100.00
45621;BME280;31345;51.522;10.702;2023-02-14T07:26:05;101060.38;;;2.36;100.00
45621;BME280;31345;51.522;10.702;2023-02-14T07:28:33;101056.94;;;2.42;100.00
45621;BME280;31345;51.522;10.702;2023-02-14T07:31:00;101059.53;;;2.32;100.00
45621;BME280;31345;51.522;10.702;2023-02-14T07:33:33;101056.09;;;2.50;100.00
45621;BME280;31345;51.522;10.702;2023-02-14T07:36:07;101062.09;;;2.26;100.00
45621;BME280;31345;51.522;10.702;2023-02-14T07:38:35;101056.97;;;2.48;100.00
45621;BME280;31345;51.522;10.702;2023-02-14T07:41:04;101056.94;;;2.62;100.00
45621;BME280;31345;51.522;10.702;2023-02-14T07:43:37;101058.66;;;2.49;100.00
45621;BME280;31345;51.522;10.702;2023-02-14T07:46:09;101056.09;;;2.41;100.00
45621;BME280;31345;51.522;10.702;2023-02-14T07:48:42;101050.94;;;2.36;100.00
45621;BME280;31345;51.522;10.702;2023-02-14T07:51:14;101044.03;;;2.45;100.00
45621;BME280;31345;51.522;10.702;2023-02-14T07:53:47;101047.47;;;2.61;100.00
45621;BME280;31345;51.522;10.702;2023-02-14T07:56:16;101044.88;;;2.67;100.00
45621;BME280;31345;51.522;10.702;2023-02-14T07:58:44;101046.59;;;2.74;100.00
45621;BME280;31345;51.522;10.702;2023-02-14T08:01:11;101044.84;;;2.79;100.00
45621;BME280;31345;51.522;10.702;2023-02-14T08:03:39;101044.84;;;2.81;100.00
45621;BME280;31345;51.522;10.702;2023-02-14T08:06:14;101042.28;;;2.83;100.00
45621;BME280;31345;51.522;10.702;2023-02-14T08:08:43;101040.56;;;2.85;100.00
45621;BME280;31345;51.522;10.702;2023-02-14T08:11:10;101047.44;;;2.89;100.00
45621;BME280;31345;51.522;10.702;2023-02-14T08:14:05;101039.69;;;2.89;100.00
45621;BME280;31345;51.522;10.702;2023-02-14T08:16:37;101042.28;;;2.86;100.00
45621;BME280;31345;51.522;10.702;2023-02-14T08:19:05;101042.28;;;2.83;100.00
45621;BME280;31345;51.522;10.702;2023-02-14T08:21:32;101033.72;;;2.67;100.00
45621;BME280;31345;51.522;10.702;2023-02-14T08:24:00;101035.38;;;2.85;100.00
45621;BME280;31345;51.522;10.702;2023-02-14T08:26:33;101031.09;;;2.77;100.00
45621;BME280;31345;51.522;10.702;2023-02-14T08:29:00;101030.22;;;2.75;100.00
45621;BME280;31345;51.522;10.702;2023-02-14T08:31:34;101036.25;;;2.76;100.00
45621;BME280;31345;51.522;10.702;2023-02-14T08:34:07;101041.41;;;2.82;100.00
45621;BME280;31345;51.522;10.702;2023-02-14T08:36:35;101045.72;;;2.78;100.00
45621;BME280;31345;51.522;10.702;2023-02-14T08:39:03;101044.03;;;2.67;100.00
45621;BME280;31345;51.522;10.702;2023-02-14T08:41:36;101041.44;;;2.76;100.00
45621;BME280;31345;51.522;10.702;2023-02-14T08:44:09;101044.81;;;2.97;100.00
45621;BME280;31345;51.522;10.702;2023-02-14T08:46:43;101049.13;;;2.99;100.00
45621;BME280;31345;51.522;10.702;2023-02-14T08:49:15;101040.56;;;2.78;100.00
45621;BME280;31345;51.522;10.702;2023-02-14T08:51:48;101044.84;;;2.81;100.00
45621;BME280;31345;51.522;10.702;2023-02-14T08:54:21;101044.84;;;2.89;100.00
45621;BME280;31345;51.522;10.702;2023-02-14T08:56:48;101035.34;;;2.99;100.00
45621;BME280;31345;51.522;10.702;2023-02-14T08:59:16;101037.09;;;2.89;100.00
45621;BME280;31345;51.522;10.702;2023-02-14T09:01:45;101037.84;;;3.28;100.00
45621;BME280;31345;51.522;10.702;2023-02-14T09:04:12;101025.75;;;3.30;100.00
45621;BME280;31345;51.522;10.702;2023-02-14T09:06:45;101024.03;;;3.31;100.00
45621;BME280;31345;51.522;10.702;2023-02-14T09:09:17;101021.47;;;3.26;100.00
45621;BME280;31345;51.522;10.702;2023-02-14T09:11:50;101026.69;;;3.15;100.00
45621;BME280;31345;51.522;10.702;2023-02-14T09:14:23;101024.13;;;3.04;100.00
45621;BME280;31345;51.522;10.702;2023-02-14T09:16:57;101020.69;;;3.06;100.00
45621;BME280;31345;51.522;10.702;2023-02-14T09:19:31;101015.44;;;3.24;100.00
45621;BME280;31345;51.522;10.702;2023-02-14T09:22:05;101019.81;;;3.08;100.00
45621;BME280;31345;51.522;10.702;2023-02-14T09:24:34;101022.38;;;3.11;100.00
45621;BME280;31345;51.522;10.702;2023-02-14T09:27:07;101018.88;;;3.22;100.00
45621;BME280;31345;51.522;10.702;2023-02-14T09:29:40;101029.31;;;3.04;100.00
45621;BME280;31345;51.522;10.702;2023-02-14T09:32:09;101027.59;;;2.97;100.00
45621;BME280;31345;51.522;10.702;2023-02-14T09:34:42;101025.84;;;3.02;100.00
45621;BME280;31345;51.522;10.702;2023-02-14T09:37:32;101015.31;;;3.48;100.00
45621;BME280;31345;51.522;10.702;2023-02-14T09:40:06;101018.72;;;3.56;100.00
45621;BME280;31345;51.522;10.702;2023-02-14T09:42:49;101010.97;;;3.61;100.00
45621;BME280;31345;51.522;10.702;2023-02-14T09:45:26;101019.81;;;3.13;100.00
45621;BME280;31345;51.522;10.702;2023-02-14T09:48:05;101007.63;;;3.35;100.00
45621;BME280;31345;51.522;10.702;2023-02-14T09:50:44;101009.28;;;3.47;100.00
45621;BME280;31345;51.522;10.702;2023-02-14T09:53:21;101003.16;;;3.62;100.00
45621;BME280;31345;51.522;10.702;2023-02-14T09:56:02;101006.50;;;3.85;100.00
45621;BME280;31345;51.522;10.702;2023-02-14T09:58:34;101009.09;;;3.83;100.00
45621;BME280;31345;51.522;10.702;2023-02-14T10:01:10;101006.50;;;3.81;100.00
45621;BME280;31345;51.522;10.702;2023-02-14T10:04:06;100998.66;;;3.94;100.00
45621;BME280;31345;51.522;10.702;2023-02-14T10:06:48;101002.84;;;4.09;100.00
45621;BME280;31345;51.522;10.702;2023-02-14T10:09:37;101008.09;;;4.03;100.00
45621;BME280;31345;51.522;10.702;2023-02-14T10:12:17;100997.72;;;4.04;100.00
45621;BME280;31345;51.522;10.702;2023-02-14T10:14:47;100993.34;;;4.13;100.00
45621;BME280;31345;51.522;10.702;2023-02-14T10:17:25;100998.34;;;4.28;100.00
45621;BME280;31345;51.522;10.702;2023-02-14T10:20:03;100987.91;;;4.41;100.00
45621;BME280;31345;51.522;10.702;2023-02-14T10:22:37;100985.34;;;4.39;100.00
45621;BME280;31345;51.522;10.702;2023-02-14T10:25:18;100985.38;;;4.34;100.00
45621;BME280;31345;51.522;10.702;2023-02-14T10:27:47;100982.78;;;4.33;100.00
45621;BME280;31345;51.522;10.702;2023-02-14T10:30:17;100974.13;;;4.37;100.00
45621;BME280;31345;51.522;10.702;2023-02-14T10:32:47;100981.22;;;4.18;100.00
45621;BME280;31345;51.522;10.702;2023-02-14T10:35:34;100987.06;;;4.37;100.00
45621;BME280;31345;51.522;10.702;2023-02-14T10:38:19;100983.31;;;4.66;100.00
45621;BME280;31345;51.522;10.702;2023-02-14T10:41:28;100981.59;;;4.67;100.00
45621;BME280;31345;51.522;10.702;2023-02-14T10:44:15;100986.94;;;4.50;100.00
45621;BME280;31345;51.522;10.702;2023-02-14T10:46:52;100978.13;;;4.66;100.00
45621;BME280;31345;51.522;10.702;2023-02-14T10:49:35;100986.88;;;4.59;100.00
45621;BME280;31345;51.522;10.702;2023-02-14T10:52:17;100980.53;;;4.85;100.00
45621;BME280;31345;51.522;10.702;2023-02-14T10:54:52;100971.09;;;4.78;100.00
45621;BME280;31345;51.522;10.702;2023-02-14T10:57:30;100974.59;;;4.75;100.00
45621;BME280;31345;51.522;10.702;2023-02-14T11:00:05;100967.78;;;4.66;100.00
45621;BME280;31345;51.522;10.702;2023-02-14T11:02:36;100967.59;;;4.82;100.00
45621;BME280;31345;51.522;10.702;2023-02-14T11:05:22;100959.78;;;4.87;100.00
45621;BME280;31345;51.522;10.702;2023-02-14T11:07:52;100957.91;;;5.00;100.00
45621;BME280;31345;51.522;10.702;2023-02-14T11:10:30;100954.44;;;4.99;100.00
45621;BME280;31345;51.522;10.702;2023-02-14T11:13:27;100957.28;;;4.79;100.00
45621;BME280;31345;51.522;10.702;2023-02-14T11:15:58;100952.91;;;4.84;100.00
45621;BME280;31345;51.522;10.702;2023-02-14T11:18:32;100950.78;;;5.16;100.00
45621;BME280;31345;51.522;10.702;2023-02-14T11:21:05;100938.88;;;4.99;100.00
45621;BME280;31345;51.522;10.702;2023-02-14T11:23:41;100952.56;;;5.12;100.00
45621;BME280;31345;51.522;10.702;2023-02-14T11:26:20;100938.84;;;5.04;100.00
45621;BME280;31345;51.522;10.702;2023-02-14T11:28:56;100939.66;;;5.06;100.00
45621;BME280;31345;51.522;10.702;2023-02-14T11:31:28;100941.75;;;4.79;100.00
45621;BME280;31345;51.522;10.702;2023-02-14T11:34:04;100944.03;;;5.02;100.00
45621;BME280;31345;51.522;10.702;2023-02-14T11:36:40;100940.50;;;5.08;100.00
45621;BME280;31345;51.522;10.702;2023-02-14T11:39:24;100939.69;;;5.04;100.00
45621;BME280;31345;51.522;10.702;2023-02-14T11:42:00;100945.84;;;4.98;100.00
45621;BME280;31345;51.522;10.702;2023-02-14T11:44:34;100941.97;;;5.28;100.00
45621;BME280;31345;51.522;10.702;2023-02-14T11:47:17;100937.72;;;5.22;100.00
45621;BME280;31345;51.522;10.702;2023-02-14T11:49:55;100935.97;;;5.24;100.00
45621;BME280;31345;51.522;10.702;2023-02-14T11:52:28;100930.66;;;5.33;100.00
45621;BME280;31345;51.522;10.702;2023-02-14T11:55:04;100925.19;;;5.52;100.00
45621;BME280;31345;51.522;10.702;2023-02-14T11:57:33;100921.03;;;5.42;100.00
45621;BME280;31345;51.522;10.702;2023-02-14T12:00:12;100915.72;;;5.48;100.00
45621;BME280;31345;51.522;10.702;2023-02-14T12:02:43;100914.06;;;5.44;100.00
45621;BME280;31345;51.522;10.702;2023-02-14T12:05:18;100915.28;;;5.78;100.00
45621;BME280;31345;51.522;10.702;2023-02-14T12:07:53;100909.47;;;5.63;100.00
45621;BME280;31345;51.522;10.702;2023-02-14T12:10:28;100911.16;;;5.66;100.00
45621;BME280;31345;51.522;10.702;2023-02-14T12:13:16;100909.03;;;5.91;100.00
45621;BME280;31345;51.522;10.702;2023-02-14T12:15:50;100896.19;;;5.82;100.00
45621;BME280;31345;51.522;10.702;2023-02-14T12:18:44;100890.72;;;5.97;100.00
45621;BME280;31345;51.522;10.702;2023-02-14T12:21:24;100891.38;;;6.09;100.00
45621;BME280;31345;51.522;10.702;2023-02-14T12:24:10;100876.69;;;6.08;100.00
45621;BME280;31345;51.522;10.702;2023-02-14T12:26:51;100892.41;;;6.00;100.00
45621;BME280;31345;51.522;10.702;2023-02-14T12:29:30;100882.72;;;6.10;100.00
45621;BME280;31345;51.522;10.702;2023-02-14T12:32:14;100879.50;;;5.97;100.00
45621;BME280;31345;51.522;10.702;2023-02-14T12:34:49;100878.31;;;6.15;100.00
45621;BME280;31345;51.522;10.702;2023-02-14T12:37:24;100880.25;;;6.02;100.00
45621;BME280;31345;51.522;10.702;2023-02-14T12:40:05;100875.47;;;6.27;100.00
45621;BME280;31345;51.522;10.702;2023-02-14T12:42:57;100859.91;;;6.26;100.00
45621;BME280;31345;51.522;10.702;2023-02-14T12:45:40;100857.81;;;6.44;100.00
45621;BME280;31345;51.522;10.702;2023-02-14T12:48:19;100854.81;;;6.65;100.00
45621;BME280;31345;51.522;10.702;2023-02-14T12:50:52;100845.69;;;6.87;100.00
45621;BME280;31345;51.522;10.702;2023-02-14T12:53:34;100838.09;;;6.76;100.00
45621;BME280;31345;51.522;10.702;2023-02-14T12:56:10;100841.53;;;6.78;100.00
45621;BME280;31345;51.522;10.702;2023-02-14T12:58:56;100844.16;;;6.76;100.00
45621;BME280;31345;51.522;10.702;2023-02-14T13:01:57;100832.47;;;6.57;100.00
45621;BME280;31345;51.522;10.702;2023-02-14T13:04:49;100823.88;;;6.92;100.00
45621;BME280;31345;51.522;10.702;2023-02-14T13:07:35;100824.44;;;7.05;100.00
45621;BME280;31345;51.522;10.702;2023-02-14T13:10:16;100823.16;;;6.86;100.00
45621;BME280;31345;51.522;10.702;2023-02-14T13:12:50;100815.25;;;6.90;100.00
45621;BME280;31345;51.522;10.702;2023-02-14T13:15:30;100822.84;;;7.00;100.00
45621;BME280;31345;51.522;10.702;2023-02-14T13:18:11;100810.50;;;7.08;100.00
45621;BME280;31345;51.522;10.702;2023-02-14T13:20:49;100807.19;;;7.39;100.00
45621;BME280;31345;51.522;10.702;2023-02-14T13:23:27;100806.66;;;7.63;100.00
45621;BME280;31345;51.522;10.702;2023-02-14T13:25:59;100801.44;;;7.96;100.00